NZCH/CHC METAR and TAF weather

Enter ICAO airport designator
Station Type Date Time Source
NZCH METAR 2024/05/28 22:30 UTC NOAA

NZCH 282230Z AUTO 22002KT 9999 SCT070/// OVC085/// 08/05 Q1001


Station Type Date Time Source
NZCH Decoded METAR 2024/05/28 22:30 UTC NOAA

Christchurch, New Zealand (NZCH) 43-29S 172-33E 30M
May 28, 2024 - 06:30 PM EDT / 2024.05.28 2230 UTC
Wind: from the SW (220 degrees) at 2 MPH (2 KT):0
Visibility: greater than 7 mile(s):0
Sky conditions: overcast
Temperature: 46 F (8 C)
Dew Point: 41 F (5 C)
Relative Humidity: 81%
Pressure (altimeter): 29.56 in. Hg (1001 hPa)
ob: NZCH 282230Z AUTO 22002KT 9999 SCT070/// OVC085/// 08/05 Q1001
cycle: 22

Station Type Date Time Source
NZCH TAF 2024/05/28 21:15 UTC NOAA